Time;durP1;ratioP1;P1;durP2;ratioP2;P2;SDS_P1;SDS_P2;PMS_P1;PMS_P2;Temp;Humidity;BMP_temperature;BMP_pressure;BME280_temperature;BME280_humidity;BME280_pressure;Samples;Min_cycle;Max_cycle;Signal;HPM_P1;HPM_P2
2022/03/15 00:00:07;;;;;;;44.88;23.02;;;;;;;4.22;50.80;101618.70;2065957;83;21616;-78
2022/03/15 00:03:10;;;;;;;45.10;22.93;;;;;;;4.28;50.88;101613.11;2070883;84;21090;-78
2022/03/15 00:06:12;;;;;;;45.08;23.02;;;;;;;4.35;51.00;101609.64;2063396;84;21116;-81
2022/03/15 00:09:13;;;;;;;47.20;22.82;;;;;;;4.39;51.06;101608.07;2069320;84;21045;-80
2022/03/15 00:12:14;;;;;;;46.68;23.25;;;;;;;4.44;51.17;101603.36;2065483;84;21040;-78
2022/03/15 00:15:16;;;;;;;43.15;23.12;;;;;;;4.50;51.29;101599.52;2070076;84;21559;-80
2022/03/15 00:18:17;;;;;;;41.55;20.82;;;;;;;4.55;51.39;101598.78;2066074;84;21065;-79
2022/03/15 00:21:20;;;;;;;49.95;23.10;;;;;;;4.57;51.53;101600.02;2069447;84;22224;-79
2022/03/15 00:24:22;;;;;;;44.25;22.37;;;;;;;4.58;51.41;101605.65;2069253;84;21025;-78
2022/03/15 00:27:25;;;;;;;42.05;22.85;;;;;;;4.61;51.42;101598.89;2064573;84;20995;-78
2022/03/15 00:30:28;;;;;;;37.08;21.52;;;;;;;4.66;51.43;101599.47;2067984;83;21158;-81
2022/03/15 00:33:30;;;;;;;38.70;21.15;;;;;;;4.69;51.39;101600.11;2065510;83;21010;-78
2022/03/15 00:36:35;;;;;;;38.50;20.68;;;;;;;4.74;51.50;101602.95;2068486;84;20963;-81
2022/03/15 00:39:35;;;;;;;36.80;20.00;;;;;;;4.77;51.51;101603.61;2069987;84;21010;-80
2022/03/15 00:42:36;;;;;;;40.80;21.45;;;;;;;4.81;51.67;101607.72;2070244;84;21006;-78
2022/03/15 00:45:38;;;;;;;44.13;22.17;;;;;;;4.83;51.74;101612.43;2067492;84;21092;-78
2022/03/15 00:48:40;;;;;;;44.05;22.45;;;;;;;4.85;51.70;101609.25;2072290;84;21054;-79
2022/03/15 00:51:42;;;;;;;44.50;23.05;;;;;;;4.87;51.84;101619.22;2068728;84;21016;-78
2022/03/15 00:54:44;;;;;;;43.28;22.22;;;;;;;4.88;51.87;101618.27;2062956;84;21486;-80
2022/03/15 00:57:45;;;;;;;41.00;22.80;;;;;;;4.91;52.05;101619.39;2070487;84;21539;-80
2022/03/15 01:00:56;;;;;;;40.17;22.87;;;;;;;4.90;52.06;101616.87;2066015;84;21319;-78
2022/03/15 01:03:58;;;;;;;38.83;21.87;;;;;;;4.91;52.21;101614.13;2068496;84;21019;-78
2022/03/15 01:07:00;;;;;;;40.48;21.10;;;;;;;4.91;52.28;101612.81;2065442;84;21107;-78
2022/03/15 01:10:02;;;;;;;44.88;20.80;;;;;;;4.89;52.30;101609.42;2065750;83;21050;-79
2022/03/15 01:13:04;;;;;;;39.42;20.17;;;;;;;4.89;52.36;101609.42;2072489;83;21076;-79
2022/03/15 01:16:07;;;;;;;38.70;18.77;;;;;;;4.88;52.33;101606.91;2062581;84;21826;-77
2022/03/15 01:19:08;;;;;;;36.68;18.55;;;;;;;4.91;52.80;101606.23;2059438;84;21079;-80
2022/03/15 01:22:10;;;;;;;30.43;16.97;;;;;;;4.93;53.46;101604.37;2064403;83;21060;-81
2022/03/15 01:25:12;;;;;;;27.27;16.45;;;;;;;4.98;53.71;101602.75;2066794;84;21032;-78
2022/03/15 01:28:15;;;;;;;30.50;15.50;;;;;;;5.06;54.08;101606.23;2072171;84;21538;-79
2022/03/15 01:31:16;;;;;;;27.95;15.35;;;;;;;5.15;54.15;101604.34;2064790;84;21025;-78
2022/03/15 01:34:17;;;;;;;30.80;17.10;;;;;;;5.21;54.19;101607.05;2056676;84;21053;-77
2022/03/15 01:37:19;;;;;;;30.00;16.00;;;;;;;5.23;54.14;101606.02;2042263;85;21047;-80
2022/03/15 01:40:21;;;;;;;31.73;17.23;;;;;;;5.26;54.27;101609.78;2040317;85;21014;-79
2022/03/15 01:43:22;;;;;;;29.27;15.53;;;;;;;5.27;54.41;101606.22;2042694;85;21551;-80
2022/03/15 01:46:24;;;;;;;28.35;15.88;;;;;;;5.28;54.56;101609.22;2032672;85;21027;-78
2022/03/15 01:49:25;;;;;;;28.95;16.40;;;;;;;5.32;54.60;101604.16;2037334;85;21061;-79
2022/03/15 01:52:27;;;;;;;32.17;17.23;;;;;;;5.38;54.73;101617.40;2035707;85;21031;-80
2022/03/15 01:55:29;;;;;;;29.67;17.05;;;;;;;5.40;55.00;101618.97;2035055;85;21031;-78
2022/03/15 01:58:30;;;;;;;28.90;17.37;;;;;;;5.44;54.96;101618.80;2044391;85;21074;-79
2022/03/15 02:01:32;;;;;;;31.95;17.87;;;;;;;5.48;55.09;101617.65;2046778;85;21070;-81
2022/03/15 02:04:36;;;;;;;35.65;18.57;;;;;;;5.49;55.20;101609.67;2037017;85;21035;-79
2022/03/15 02:07:38;;;;;;;34.60;18.48;;;;;;;5.49;55.35;101608.80;2034614;85;21042;-80
2022/03/15 02:10:40;;;;;;;29.52;17.60;;;;;;;5.49;56.02;101606.16;2038983;85;22219;-79
2022/03/15 02:13:41;;;;;;;32.15;17.65;;;;;;;5.48;55.62;101605.33;2038414;85;20994;-78
2022/03/15 02:16:43;;;;;;;33.85;18.80;;;;;;;5.45;55.67;101608.63;2044761;85;21027;-77
2022/03/15 02:19:45;;;;;;;36.88;18.77;;;;;;;5.43;55.91;101610.03;2042854;85;21086;-82
2022/03/15 02:22:46;;;;;;;31.62;18.23;;;;;;;5.41;55.74;101604.04;2040711;85;21075;-80
2022/03/15 02:25:48;;;;;;;38.73;19.62;;;;;;;5.40;55.74;101599.22;2043367;85;21055;-81
2022/03/15 02:28:49;;;;;;;35.95;19.20;;;;;;;5.42;55.86;101596.50;2028435;85;21007;-80
2022/03/15 02:31:51;;;;;;;37.50;19.77;;;;;;;5.43;55.93;101592.08;2037457;85;20995;-83
2022/03/15 02:34:54;;;;;;;33.50;18.92;;;;;;;5.42;56.03;101589.09;2059401;84;21644;-79
2022/03/15 02:37:56;;;;;;;36.45;17.62;;;;;;;5.38;56.03;101585.33;2062168;84;21048;-79
2022/03/15 02:40:58;;;;;;;35.35;19.75;;;;;;;5.34;56.17;101586.45;2067103;84;21482;-79
2022/03/15 02:43:59;;;;;;;32.15;18.50;;;;;;;5.33;56.26;101586.09;2064463;84;21042;-80
2022/03/15 02:47:01;;;;;;;48.50;23.52;;;;;;;5.30;56.40;101581.50;2069431;84;21058;-80
2022/03/15 02:50:03;;;;;;;35.48;19.77;;;;;;;5.27;56.51;101588.28;2063089;84;21541;-78
2022/03/15 02:53:04;;;;;;;36.90;19.90;;;;;;;5.25;56.69;101592.31;2071574;84;21038;-79
2022/03/15 02:56:12;;;;;;;46.33;23.55;;;;;;;5.19;56.79;101600.59;2066936;84;21039;-79
2022/03/15 02:59:14;;;;;;;37.78;19.35;;;;;;;5.13;56.72;101593.09;2071182;84;21028;-80
2022/03/15 03:02:16;;;;;;;35.75;20.60;;;;;;;5.10;56.92;101584.07;2068120;84;21030;-79
2022/03/15 03:05:17;;;;;;;46.53;21.87;;;;;;;5.08;57.00;101576.73;2071118;84;21124;-76
2022/03/15 03:08:25;;;;;;;41.42;19.62;;;;;;;5.06;56.99;101589.97;2067327;84;21038;-81
2022/03/15 03:11:22;;;;;;;39.58;18.62;;;;;;;5.05;57.02;101590.92;2070142;84;21048;-82
2022/03/15 03:14:24;;;;;;;35.08;17.92;;;;;;;5.06;57.07;101594.39;2063091;84;21064;-80
2022/03/15 03:17:25;;;;;;;42.70;19.42;;;;;;;5.04;57.32;101597.13;2059806;84;21075;-77
2022/03/15 03:20:27;;;;;;;35.65;19.35;;;;;;;5.03;57.87;101597.22;2069651;84;20998;-78
2022/03/15 03:23:33;;;;;;;32.25;17.45;;;;;;;4.99;57.71;101597.05;2063296;84;21636;-81
2022/03/15 03:26:37;;;;;;;30.72;15.35;;;;;;;4.94;57.72;101601.27;2065782;84;21036;-79
2022/03/15 03:29:40;;;;;;;28.23;14.85;;;;;;;4.92;57.86;101598.71;2067136;84;21073;-81
2022/03/15 03:32:42;;;;;;;26.48;14.50;;;;;;;4.92;57.78;101596.08;2073906;84;20998;-81
2022/03/15 03:35:43;;;;;;;26.00;15.18;;;;;;;4.89;57.87;101594.95;2074822;83;21511;-80
2022/03/15 03:38:45;;;;;;;25.88;14.73;;;;;;;4.85;57.96;101596.58;2081927;83;21569;-81
2022/03/15 03:41:46;;;;;;;29.98;15.78;;;;;;;4.78;57.97;101601.34;2069015;84;21543;-81
2022/03/15 03:44:48;;;;;;;26.12;14.33;;;;;;;4.73;58.33;101590.28;2076363;84;21466;-79
2022/03/15 03:47:49;;;;;;;28.75;15.03;;;;;;;4.68;58.42;101594.97;2079340;84;21007;-78
2022/03/15 03:50:52;;;;;;;28.45;14.75;;;;;;;4.63;58.17;101604.44;2077153;84;21478;-78
2022/03/15 03:53:53;;;;;;;39.55;23.30;;;;;;;4.63;58.24;101611.48;2073575;84;21029;-78
2022/03/15 03:56:54;;;;;;;26.65;17.17;;;;;;;4.57;58.44;101614.01;2073153;84;21040;-78
2022/03/15 03:59:56;;;;;;;30.02;15.83;;;;;;;4.49;58.47;101610.52;2069955;84;21022;-80
2022/03/15 04:03:00;;;;;;;28.32;17.10;;;;;;;4.43;58.60;101604.31;2073008;84;21056;-81
2022/03/15 04:06:04;;;;;;;24.52;14.85;;;;;;;4.43;58.61;101606.09;2069902;84;21032;-80
2022/03/15 04:09:09;;;;;;;30.02;15.98;;;;;;;4.43;59.03;101608.25;2076523;83;21100;-80
2022/03/15 04:12:10;;;;;;;29.25;15.48;;;;;;;4.45;59.15;101606.86;2065921;83;21044;-79
2022/03/15 04:15:12;;;;;;;29.70;15.05;;;;;;;4.48;59.29;101606.67;2072066;84;21018;-77
2022/03/15 04:18:14;;;;;;;26.50;12.88;;;;;;;4.53;59.56;101613.80;2068994;84;21019;-79
2022/03/15 04:21:15;;;;;;;25.52;12.23;;;;;;;4.55;59.53;101612.41;2072428;84;21281;-80
2022/03/15 04:24:17;;;;;;;21.93;11.68;;;;;;;4.59;59.88;101602.06;2096312;84;21036;-78
2022/03/15 04:27:18;;;;;;;21.85;11.80;;;;;;;4.64;59.83;101604.80;2091852;84;21392;-77
2022/03/15 04:30:20;;;;;;;21.60;10.60;;;;;;;4.71;60.00;101604.82;2091397;83;21004;-81
2022/03/15 04:33:21;;;;;;;21.48;10.72;;;;;;;4.81;60.05;101603.78;2093634;82;20990;-81
2022/03/15 04:36:23;;;;;;;18.10;10.50;;;;;;;4.87;60.18;101597.30;2094719;83;21048;-79
2022/03/15 04:39:25;;;;;;;17.17;9.95;;;;;;;4.93;60.35;101600.42;2074357;84;21073;-79
2022/03/15 04:42:27;;;;;;;17.85;9.68;;;;;;;4.97;60.52;101595.81;2072967;84;21949;-79
2022/03/15 04:45:28;;;;;;;15.93;9.15;;;;;;;5.00;60.62;101603.98;2102359;83;21062;-79
2022/03/15 04:48:30;;;;;;;14.58;9.00;;;;;;;5.04;60.70;101602.84;2080163;84;21090;-79
2022/03/15 04:51:31;;;;;;;15.05;8.68;;;;;;;5.06;60.74;101595.70;2085898;84;21020;-76
2022/03/15 04:54:32;;;;;;;15.93;8.88;;;;;;;5.08;60.80;101610.94;2086414;84;21014;-79
2022/03/15 04:57:34;;;;;;;15.43;8.78;;;;;;;5.08;60.88;101607.83;2077144;84;21470;-79
2022/03/15 05:00:35;;;;;;;17.25;9.48;;;;;;;5.09;60.96;101608.67;2078419;84;21062;-80
2022/03/15 05:03:37;;;;;;;14.90;8.95;;;;;;;5.08;61.03;101613.09;2082678;84;21028;-78
2022/03/15 05:06:39;;;;;;;15.10;8.75;;;;;;;5.05;61.15;101617.23;2089784;84;21056;-80
2022/03/15 05:11:06;;;;;;;13.93;8.65;;;;;;;5.07;61.19;101616.67;2079020;84;21028;-81
2022/03/15 05:12:43;;;;;;;14.28;7.70;;;;;;;5.09;61.36;101619.20;2077394;84;21076;-79
2022/03/15 05:15:45;;;;;;;13.98;7.75;;;;;;;5.10;61.46;101618.27;2083994;84;20997;-78
2022/03/15 05:18:57;;;;;;;11.75;8.05;;;;;;;5.12;61.50;101617.24;2082056;84;21565;-80
2022/03/15 05:21:57;;;;;;;12.73;8.15;;;;;;;5.17;61.65;101616.94;2085715;83;21071;-80
2022/03/15 05:25:00;;;;;;;13.55;7.67;;;;;;;5.21;61.60;101622.84;2085117;84;21079;-78
2022/03/15 05:28:01;;;;;;;14.28;8.40;;;;;;;5.25;61.73;101622.57;2079654;83;20988;-80
2022/03/15 05:31:03;;;;;;;12.65;7.75;;;;;;;5.28;61.79;101621.06;2083226;84;20986;-78
2022/03/15 05:34:04;;;;;;;15.25;9.33;;;;;;;5.28;61.73;101614.95;2078761;84;21502;-78
2022/03/15 05:37:08;;;;;;;15.80;8.73;;;;;;;5.32;61.79;101614.69;2060749;85;22345;-81
2022/03/15 05:40:11;;;;;;;13.62;8.30;;;;;;;5.34;61.85;101615.41;2060534;85;21069;-80
2022/03/15 05:43:13;;;;;;;11.65;7.90;;;;;;;5.34;61.92;101614.57;2056506;85;21027;-80
2022/03/15 05:46:15;;;;;;;13.43;8.58;;;;;;;5.36;62.02;101618.80;2057873;85;21098;-80
2022/03/15 05:49:17;;;;;;;15.10;8.63;;;;;;;5.38;62.08;101626.61;2056625;85;21010;-84
2022/03/15 05:52:19;;;;;;;12.40;8.58;;;;;;;5.39;62.10;101618.60;2061289;84;21081;-80
2022/03/15 05:55:21;;;;;;;14.47;9.03;;;;;;;5.43;62.12;101603.92;2058978;85;21562;-80
2022/03/15 05:58:22;;;;;;;13.95;8.63;;;;;;;5.48;62.13;101616.33;2061386;85;21058;-80
2022/03/15 06:01:25;;;;;;;12.75;8.33;;;;;;;5.51;62.21;101627.51;2057036;85;21047;-80
2022/03/15 06:04:27;;;;;;;15.88;8.78;;;;;;;5.58;62.16;101617.45;2055936;85;21093;-79
2022/03/15 06:07:28;;;;;;;17.57;9.20;;;;;;;5.61;62.14;101608.88;2055524;85;21054;-79
2022/03/15 06:10:31;;;;;;;13.60;9.25;;;;;;;5.67;62.16;101614.70;2055251;84;21042;-81
2022/03/15 06:13:33;;;;;;;15.50;9.28;;;;;;;5.71;62.34;101616.17;2053026;84;21047;-81
2022/03/15 06:16:34;;;;;;;16.90;10.68;;;;;;;5.74;62.22;101622.56;2059131;85;21030;-81
2022/03/15 06:19:36;;;;;;;15.68;9.65;;;;;;;5.78;62.30;101620.12;2059025;84;21050;-78
2022/03/15 06:22:37;;;;;;;18.02;9.75;;;;;;;5.83;62.29;101617.56;2053002;85;20992;-82
2022/03/15 06:25:39;;;;;;;16.73;10.03;;;;;;;5.90;62.24;101623.74;2059036;84;21492;-80
2022/03/15 06:28:40;;;;;;;18.55;10.75;;;;;;;5.96;62.23;101616.78;2054153;84;21053;-83
2022/03/15 06:31:42;;;;;;;17.77;10.90;;;;;;;6.00;62.14;101613.86;2057624;85;21014;-80
2022/03/15 06:34:43;;;;;;;16.67;10.65;;;;;;;6.06;62.13;101612.61;2055423;84;21036;-80
2022/03/15 06:37:48;;;;;;;18.05;10.35;;;;;;;6.09;61.96;101617.67;2080433;84;21001;-79
2022/03/15 06:40:51;;;;;;;18.30;10.72;;;;;;;6.15;61.86;101621.70;2078165;84;22140;-80
2022/03/15 06:43:53;;;;;;;17.92;11.70;;;;;;;6.19;61.76;101629.28;2076072;84;21510;-80
2022/03/15 06:46:55;;;;;;;15.83;10.78;;;;;;;6.37;61.85;101636.94;2074368;83;21045;-81
2022/03/15 06:49:56;;;;;;;18.17;11.25;;;;;;;6.83;61.93;101628.05;2080052;84;20967;-82
2022/03/15 06:52:57;;;;;;;20.10;10.98;;;;;;;7.43;61.70;101621.20;2077553;84;21017;-81
2022/03/15 06:55:59;;;;;;;19.07;11.40;;;;;;;7.93;61.17;101615.38;2079175;84;21036;-80
2022/03/15 06:59:00;;;;;;;15.53;10.72;;;;;;;8.54;60.83;101604.69;2078759;84;21074;-80
2022/03/15 07:02:02;;;;;;;20.65;10.50;;;;;;;9.23;60.41;101596.64;2078852;84;21053;-83
2022/03/15 07:05:04;;;;;;;14.40;10.13;;;;;;;9.92;60.23;101595.53;2079384;84;21038;-84
2022/03/15 07:08:06;;;;;;;15.03;9.88;;;;;;;10.86;59.63;101592.48;2088103;84;21560;-85
2022/03/15 07:11:08;;;;;;;16.95;9.88;;;;;;;11.69;58.34;101593.16;2086412;83;21553;-85
2022/03/15 07:14:09;;;;;;;16.27;10.30;;;;;;;12.43;57.33;101592.61;2082783;83;21059;-86
2022/03/15 07:17:11;;;;;;;14.55;9.28;;;;;;;13.05;56.07;101596.98;2077441;84;20998;-86
2022/03/15 07:20:12;;;;;;;17.02;10.18;;;;;;;13.56;55.13;101598.27;2084026;83;20986;-85
2022/03/15 07:23:14;;;;;;;15.15;9.08;;;;;;;13.88;54.25;101591.95;2082910;84;21069;-88
2022/03/15 07:26:16;;;;;;;14.93;9.65;;;;;;;14.21;53.30;101598.88;2079235;84;21091;-85
2022/03/15 07:29:17;;;;;;;14.33;9.68;;;;;;;14.56;52.71;101593.19;2075342;84;20992;-84
2022/03/15 07:32:20;;;;;;;20.40;9.68;;;;;;;14.69;51.91;101596.25;2075274;84;21580;-86
2022/03/15 07:35:22;;;;;;;18.95;9.93;;;;;;;14.78;51.10;101591.32;2070579;84;21042;-85
2022/03/15 07:38:24;;;;;;;17.27;9.88;;;;;;;14.85;50.62;101592.02;2060625;85;20995;-84
2022/03/15 07:41:26;;;;;;;14.93;9.10;;;;;;;15.11;49.94;101595.98;2062065;84;21065;-84
2022/03/15 07:44:27;;;;;;;15.53;9.88;;;;;;;15.25;49.50;101594.86;2061204;85;21528;-86
2022/03/15 07:47:30;;;;;;;16.23;10.88;;;;;;;15.45;49.13;101599.44;2061811;84;21017;-85
2022/03/15 07:50:32;;;;;;;13.58;10.60;;;;;;;15.76;48.46;101595.36;2064052;85;21176;-85
2022/03/15 07:53:34;;;;;;;15.80;9.10;;;;;;;15.94;47.76;101604.10;2057526;85;21010;-85
2022/03/15 07:56:35;;;;;;;15.23;9.43;;;;;;;16.10;47.64;101596.05;2059026;85;21081;-86
2022/03/15 07:59:37;;;;;;;15.98;9.65;;;;;;;16.18;46.83;101596.56;2055288;84;21003;-85
2022/03/15 08:02:39;;;;;;;22.42;10.18;;;;;;;15.98;46.22;101592.05;2058292;84;21038;-84
2022/03/15 08:05:41;;;;;;;14.25;9.40;;;;;;;15.90;46.23;101606.25;2056761;85;21029;-84
2022/03/15 08:08:42;;;;;;;20.82;11.70;;;;;;;15.65;46.11;101596.00;2059854;85;21094;-85
2022/03/15 08:11:45;;;;;;;14.33;9.85;;;;;;;15.63;46.01;101591.31;2057544;85;20995;-86
2022/03/15 08:14:48;;;;;;;16.93;10.63;;;;;;;15.51;45.77;101592.59;2061268;84;21100;-84
2022/03/15 08:17:49;;;;;;;13.55;9.05;;;;;;;15.55;45.84;101591.28;2066234;84;21023;-85
2022/03/15 08:20:53;;;;;;;13.20;8.33;;;;;;;15.64;45.83;101579.59;2056870;85;21328;-85
2022/03/15 08:23:55;;;;;;;16.20;9.00;;;;;;;15.65;45.17;101586.64;2062131;85;21520;-85
2022/03/15 08:26:56;;;;;;;16.95;9.25;;;;;;;15.44;45.34;101592.42;2061902;84;21061;-84
2022/03/15 08:29:58;;;;;;;15.10;10.10;;;;;;;15.24;45.39;101592.36;2055001;85;21027;-81
2022/03/15 08:32:59;;;;;;;14.05;9.40;;;;;;;15.16;45.09;101590.48;2054048;85;21347;-81
2022/03/15 08:36:01;;;;;;;13.90;9.33;;;;;;;15.16;45.80;101583.80;2057251;84;21046;-80
2022/03/15 08:39:04;;;;;;;14.40;10.48;;;;;;;15.08;45.05;101584.27;2065961;83;21155;-81
2022/03/15 08:42:07;;;;;;;20.90;11.08;;;;;;;15.10;45.76;101583.11;2070709;84;21029;-82
2022/03/15 08:45:10;;;;;;;16.55;10.40;;;;;;;15.17;45.67;101577.95;2065267;84;21000;-81
2022/03/15 08:48:12;;;;;;;16.57;10.93;;;;;;;15.17;45.58;101576.61;2072289;84;21122;-80
2022/03/15 08:51:14;;;;;;;17.50;11.70;;;;;;;15.18;45.69;101571.63;2070419;84;20994;-81
2022/03/15 08:54:17;;;;;;;20.88;12.03;;;;;;;15.41;45.48;101564.67;2071562;84;21147;-81
2022/03/15 08:57:19;;;;;;;20.97;12.33;;;;;;;15.50;45.47;101553.48;2066342;84;21506;-85
2022/03/15 09:00:21;;;;;;;23.15;13.28;;;;;;;15.57;45.55;101554.52;2069848;84;21528;-82
2022/03/15 09:03:22;;;;;;;20.08;11.80;;;;;;;15.78;45.34;101553.23;2060241;84;21059;-83
2022/03/15 09:06:24;;;;;;;20.88;12.85;;;;;;;15.82;45.00;101546.02;2063777;84;21007;-80
2022/03/15 09:09:28;;;;;;;16.90;11.45;;;;;;;15.79;45.08;101546.35;2072358;84;21549;-81
2022/03/15 09:12:29;;;;;;;24.55;12.37;;;;;;;15.97;44.93;101542.20;2070522;84;21079;-81
2022/03/15 09:15:31;;;;;;;20.92;12.65;;;;;;;16.10;44.86;101538.48;2062136;84;21030;-80
2022/03/15 09:18:33;;;;;;;24.85;12.82;;;;;;;16.37;44.90;101537.80;2067880;84;22085;-81
2022/03/15 09:21:34;;;;;;;21.57;12.55;;;;;;;16.53;44.12;101531.59;2064115;84;21601;-81
2022/03/15 09:24:36;;;;;;;24.20;13.22;;;;;;;16.58;44.33;101539.92;2063937;84;21502;-83
2022/03/15 09:27:38;;;;;;;20.90;13.00;;;;;;;16.74;43.93;101539.88;2065912;84;21066;-81
2022/03/15 09:30:39;;;;;;;23.80;13.03;;;;;;;16.79;44.15;101534.04;2071983;84;21458;-83
2022/03/15 09:33:43;;;;;;;15.55;12.60;;;;;;;16.87;43.69;101535.36;2071702;84;21010;-81
2022/03/15 09:36:45;;;;;;;18.85;12.63;;;;;;;17.02;43.41;101526.89;2078586;83;21122;-83
2022/03/15 09:39:46;;;;;;;21.00;12.88;;;;;;;17.11;43.29;101529.54;2091209;83;21062;-80
2022/03/15 09:42:50;;;;;;;18.32;12.63;;;;;;;16.92;43.16;101524.95;2091373;83;21040;-81
2022/03/15 09:45:53;;;;;;;17.67;12.43;;;;;;;17.07;43.20;101523.70;2088713;83;21023;-81
2022/03/15 09:48:55;;;;;;;19.80;13.30;;;;;;;17.23;42.95;101520.94;2089989;83;21074;-79
2022/03/15 09:51:59;;;;;;;17.57;12.82;;;;;;;17.23;42.98;101515.57;2092015;83;21006;-80
2022/03/15 09:55:03;;;;;;;24.05;13.70;;;;;;;17.30;42.54;101510.84;2094781;83;21540;-82
2022/03/15 09:58:06;;;;;;;25.57;13.50;;;;;;;17.36;42.67;101504.24;2097716;83;21062;-81
2022/03/15 10:01:17;;;;;;;21.07;13.48;;;;;;;17.35;41.80;101506.61;2095687;83;21616;-81
2022/03/15 10:04:20;;;;;;;18.65;13.48;;;;;;;17.40;42.33;101502.89;2092732;83;21617;-82
2022/03/15 10:07:24;;;;;;;19.05;13.03;;;;;;;17.59;42.28;101498.05;2070998;83;21103;-81
2022/03/15 10:10:26;;;;;;;19.23;13.35;;;;;;;17.75;41.74;101499.27;2087967;83;21554;-81
2022/03/15 10:13:29;;;;;;;17.48;12.20;;;;;;;17.88;41.64;101488.80;2092252;83;20994;-82
2022/03/15 10:16:43;;;;;;;21.75;13.38;;;;;;;17.92;41.13;101487.40;2099893;83;21089;-80
2022/03/15 10:19:54;;;;;;;23.67;14.35;;;;;;;17.48;41.15;101487.22;2089393;83;21043;-82
2022/03/15 10:22:57;;;;;;;;;;;;;;;17.14;41.16;101479.06;2094523;83;21038;-82
2022/03/15 10:25:59;;;;;;;20.57;12.88;;;;;;;17.08;41.26;101478.44;2095036;83;20148;-82
2022/03/15 10:29:02;;;;;;;20.82;14.50;;;;;;;17.14;41.38;101476.89;2050431;83;21001;-80
2022/03/15 10:32:04;;;;;;;20.82;13.58;;;;;;;17.11;41.23;101473.23;2087086;83;20965;-81
2022/03/15 10:35:08;;;;;;;19.90;13.45;;;;;;;17.01;41.16;101468.92;2066314;83;20998;-81
2022/03/15 10:38:11;;;;;;;27.30;14.00;;;;;;;16.90;40.82;101459.11;2075655;83;21030;-81
2022/03/15 10:41:15;;;;;;;18.35;12.53;;;;;;;16.47;41.20;101461.25;2075089;84;21117;-82
2022/03/15 10:44:31;;;;;;;26.45;13.93;;;;;;;16.34;41.13;101457.80;2070131;84;21031;-80
2022/03/15 10:47:32;;;;;;;19.80;13.72;;;;;;;16.16;41.28;101454.48;2076798;84;21014;-82
2022/03/15 10:50:34;;;;;;;20.55;14.30;;;;;;;16.09;41.39;101451.16;2065576;84;21028;-82
2022/03/15 10:53:40;;;;;;;21.05;13.85;;;;;;;16.28;41.33;101441.08;2047994;84;21039;-80
2022/03/15 10:56:43;;;;;;;18.15;12.80;;;;;;;16.39;41.39;101441.19;2071023;84;21022;-80
2022/03/15 10:59:45;;;;;;;21.02;13.05;;;;;;;16.53;41.27;101436.47;2071504;84;21019;-83
2022/03/15 11:02:47;;;;;;;18.42;11.25;;;;;;;16.61;41.12;101435.58;2050497;84;21060;-81
2022/03/15 11:05:50;;;;;;;15.68;11.22;;;;;;;16.42;40.48;101424.80;2074007;83;21031;-83
2022/03/15 11:08:52;;;;;;;22.75;11.53;;;;;;;16.53;40.71;101426.59;2064516;84;21028;-81
2022/03/15 11:12:01;;;;;;;17.77;11.22;;;;;;;16.65;39.93;101427.03;2072149;83;21018;-81
2022/03/15 11:15:04;;;;;;;15.45;10.23;;;;;;;16.61;40.26;101421.67;2075471;84;21063;-81
2022/03/15 11:18:09;;;;;;;21.07;12.98;;;;;;;16.79;39.86;101414.77;2072600;84;21026;-82
2022/03/15 11:21:11;;;;;;;19.90;11.18;;;;;;;16.87;39.96;101412.55;2074527;84;21040;-82
2022/03/15 11:24:16;;;;;;;21.12;12.45;;;;;;;17.03;39.75;101403.05;2075048;84;21026;-82
2022/03/15 11:27:18;;;;;;;18.48;12.85;;;;;;;17.26;39.39;101403.08;2075849;84;20972;-82
2022/03/15 11:30:20;;;;;;;21.12;14.10;;;;;;;17.09;38.24;101400.16;2069987;84;20988;-82
2022/03/15 11:33:24;;;;;;;18.62;12.10;;;;;;;16.85;39.16;101404.67;2074341;84;21102;-82
2022/03/15 11:36:26;;;;;;;16.57;11.45;;;;;;;16.69;39.41;101394.01;2076339;83;21571;-82
2022/03/15 11:39:31;;;;;;;18.70;11.20;;;;;;;16.97;39.37;101391.19;2087354;83;20983;-83
2022/03/15 11:42:34;;;;;;;15.80;10.82;;;;;;;17.23;38.81;101384.62;2081852;84;21075;-82
2022/03/15 11:45:47;;;;;;;15.38;9.65;;;;;;;17.41;38.89;101377.62;2082579;84;21705;-81
2022/03/15 11:49:05;;;;;;;16.10;8.95;;;;;;;17.53;38.57;101373.99;2057950;83;21075;-80
2022/03/15 11:52:21;;;;;;;14.35;8.33;;;;;;;17.59;38.36;101375.95;2045466;84;21545;-81
2022/03/15 11:55:49;;;;;;;13.88;7.85;;;;;;;17.66;37.77;101375.05;2059344;84;21729;-82
2022/03/15 11:58:56;;;;;;;14.60;8.90;;;;;;;17.41;37.19;101354.31;2080769;84;20998;-81
2022/03/15 12:02:02;;;;;;;13.25;8.60;;;;;;;17.19;37.42;101355.17;2080671;84;21026;-83
2022/03/15 12:05:17;;;;;;;18.15;10.63;;;;;;;16.92;37.50;101348.02;2084467;84;21520;-80
2022/03/15 12:08:26;;;;;;;17.07;10.45;;;;;;;16.74;37.74;101336.70;2074577;84;21510;-81
2022/03/15 12:11:39;;;;;;;12.07;9.23;;;;;;;16.71;38.12;101330.36;2078439;83;21023;-81
2022/03/15 12:14:44;;;;;;;14.83;8.95;;;;;;;16.74;37.89;101320.11;2077801;84;21010;-79
2022/03/15 12:17:45;;;;;;;13.08;9.15;;;;;;;16.73;37.83;101317.63;2087540;84;21015;-81
2022/03/15 12:21:02;;;;;;;15.50;8.95;;;;;;;16.85;37.84;101320.23;2095568;83;21511;-81
2022/03/15 12:24:04;;;;;;;13.30;8.48;;;;;;;16.79;37.61;101316.94;2099025;82;21042;-80
2022/03/15 12:27:12;;;;;;;10.05;7.37;;;;;;;16.73;37.76;101313.09;2144205;80;21043;-80
2022/03/15 12:30:28;;;;;;;14.73;8.03;;;;;;;16.76;37.42;101315.45;2149490;81;21385;-82
2022/03/15 12:33:30;;;;;;;12.53;7.37;;;;;;;16.58;37.28;101307.67;2148861;81;21041;-82
2022/03/15 12:36:59;;;;;;;11.12;6.92;;;;;;;16.61;37.33;101310.98;2144875;81;21494;-83
2022/03/15 12:40:03;;;;;;;10.93;7.72;;;;;;;16.70;37.19;101301.91;2142504;81;21061;-83
2022/03/15 12:43:05;;;;;;;13.00;7.72;;;;;;;16.74;37.27;101297.84;2141363;80;21010;-82
2022/03/15 12:46:08;;;;;;;11.80;7.80;;;;;;;16.79;36.83;101293.64;2138314;81;20995;-81
2022/03/15 12:49:13;;;;;;;12.95;8.40;;;;;;;16.75;37.00;101287.44;2146721;81;21011;-82
2022/03/15 12:52:15;;;;;;;15.18;8.58;;;;;;;16.72;36.80;101287.28;2138287;81;21512;-81
2022/03/15 12:55:27;;;;;;;14.10;8.40;;;;;;;16.66;36.78;101276.45;2136498;81;21572;-82
2022/03/15 12:58:30;;;;;;;32.25;8.85;;;;;;;16.67;36.93;101274.95;2141644;81;21056;-80
2022/03/15 13:01:32;;;;;;;11.88;8.08;;;;;;;16.64;36.90;101270.44;2141816;81;20999;-81
2022/03/15 13:04:36;;;;;;;12.63;8.20;;;;;;;16.60;36.80;101259.25;2144993;81;21047;-82
2022/03/15 13:07:37;;;;;;;13.08;8.58;;;;;;;16.50;36.37;101255.48;2147686;81;20989;-83
2022/03/15 13:10:43;;;;;;;12.33;7.60;;;;;;;16.29;36.23;101249.91;2144563;81;21074;-80
2022/03/15 13:13:46;;;;;;;12.63;8.60;;;;;;;16.15;36.57;101242.12;2142396;81;21014;-80
2022/03/15 13:16:50;;;;;;;11.08;8.20;;;;;;;16.16;36.44;101235.75;2139323;81;21307;-81
2022/03/15 13:19:51;;;;;;;12.20;7.65;;;;;;;16.07;36.41;101236.81;2137058;81;21573;-83
2022/03/15 13:23:02;;;;;;;13.95;8.35;;;;;;;15.97;36.59;101237.05;2141365;81;20967;-81
2022/03/15 13:26:12;;;;;;;14.80;8.20;;;;;;;15.71;36.70;101235.13;2144189;81;21089;-82
2022/03/15 13:29:14;;;;;;;10.60;7.73;;;;;;;15.69;36.74;101224.63;2146953;81;21033;-80
2022/03/15 13:32:22;;;;;;;14.23;7.58;;;;;;;15.49;36.84;101213.46;2139902;81;21012;-82
2022/03/15 13:35:24;;;;;;;15.38;8.28;;;;;;;15.50;36.89;101217.80;2147018;81;20986;-82
2022/03/15 13:38:26;;;;;;;12.00;8.50;;;;;;;15.30;37.15;101209.33;2149982;81;21055;-80
2022/03/15 13:41:36;;;;;;;14.85;8.85;;;;;;;15.09;37.38;101206.36;2141122;81;20999;-81
2022/03/15 13:44:38;;;;;;;16.87;9.23;;;;;;;14.90;37.96;101207.06;2136507;81;21070;-80
2022/03/15 13:47:55;;;;;;;12.63;8.53;;;;;;;14.89;38.24;101205.88;2143501;81;21499;-81
2022/03/15 13:51:06;;;;;;;13.30;7.85;;;;;;;14.84;37.79;101198.87;2137079;81;20994;-80
2022/03/15 13:54:11;;;;;;;11.73;8.15;;;;;;;14.69;38.20;101188.86;2149720;81;21525;-80
2022/03/15 13:57:26;;;;;;;16.15;8.93;;;;;;;14.74;38.16;101183.86;2143452;81;21005;-80
2022/03/15 14:00:28;;;;;;;15.40;8.68;;;;;;;14.74;38.33;101173.67;2139076;81;21509;-80